Glemsford, United Kingdom
Current Conditions -  °F | °C
As of 5:50 PM on Sunday 21 Dec 2014 (Local Time) from EGUW Reporting Station
Few Clouds Few Clouds  
Wind Chill: 41°   Ceiling: Unl
Heat Index: 48°   Visibility: 6mi
Dew Point: 43°   Wind: 22mph
Humidity: 82%   Direction: 230°SW
Pressure: 30.12"   Gusts: NA
Location:  52.1°N, 0.67°E
Report Text: EGUW 211750Z AUTO 23019KT 9999 FEW017/// 09/06 Q1020
Loading
Personal Weather Stations






























Interactive Weather Map New forecast layout! Learn more

10-Day Weather Forecast

Advertisements
Track Severe Weather on mobile